sensor_id;sensor_type;location;lat;lon;timestamp;P1;durP1;ratioP1;P2;durP2;ratioP2
73557;SDS011;61829;53.286;10.434;2023-06-26T00:01:30;8.45;;;6.03;;
73557;SDS011;61829;53.286;10.434;2023-06-26T00:03:57;7.78;;;5.90;;
73557;SDS011;61829;53.286;10.434;2023-06-26T00:06:24;8.05;;;6.00;;
73557;SDS011;61829;53.286;10.434;2023-06-26T00:11:21;8.68;;;5.88;;
73557;SDS011;61829;53.286;10.434;2023-06-26T00:13:47;7.60;;;5.95;;
73557;SDS011;61829;53.286;10.434;2023-06-26T00:16:13;8.57;;;6.25;;
73557;SDS011;61829;53.286;10.434;2023-06-26T00:18:39;9.90;;;5.78;;
73557;SDS011;61829;53.286;10.434;2023-06-26T00:21:05;7.05;;;5.97;;
73557;SDS011;61829;53.286;10.434;2023-06-26T00:23:31;7.05;;;5.65;;
73557;SDS011;61829;53.286;10.434;2023-06-26T00:25:58;7.55;;;6.15;;
73557;SDS011;61829;53.286;10.434;2023-06-26T00:28:24;8.18;;;5.53;;
73557;SDS011;61829;53.286;10.434;2023-06-26T00:30:50;8.32;;;6.03;;
73557;SDS011;61829;53.286;10.434;2023-06-26T00:33:16;7.85;;;5.93;;
73557;SDS011;61829;53.286;10.434;2023-06-26T00:35:42;7.47;;;5.95;;
73557;SDS011;61829;53.286;10.434;2023-06-26T00:38:07;8.15;;;6.03;;
73557;SDS011;61829;53.286;10.434;2023-06-26T00:40:33;7.20;;;5.78;;
73557;SDS011;61829;53.286;10.434;2023-06-26T00:42:59;9.23;;;6.22;;
73557;SDS011;61829;53.286;10.434;2023-06-26T00:45:25;7.85;;;6.32;;
73557;SDS011;61829;53.286;10.434;2023-06-26T00:47:51;7.63;;;5.93;;
73557;SDS011;61829;53.286;10.434;2023-06-26T00:50:17;8.75;;;6.45;;
73557;SDS011;61829;53.286;10.434;2023-06-26T00:52:44;7.45;;;6.05;;
73557;SDS011;61829;53.286;10.434;2023-06-26T00:55:10;8.13;;;5.90;;
73557;SDS011;61829;53.286;10.434;2023-06-26T00:57:36;7.22;;;5.80;;
73557;SDS011;61829;53.286;10.434;2023-06-26T01:00:03;7.45;;;5.38;;
73557;SDS011;61829;53.286;10.434;2023-06-26T01:02:30;7.65;;;6.00;;
73557;SDS011;61829;53.286;10.434;2023-06-26T01:05:00;7.28;;;5.78;;
73557;SDS011;61829;53.286;10.434;2023-06-26T01:07:32;8.50;;;6.10;;
73557;SDS011;61829;53.286;10.434;2023-06-26T01:10:05;7.22;;;5.70;;
73557;SDS011;61829;53.286;10.434;2023-06-26T01:12:32;9.02;;;5.95;;
73557;SDS011;61829;53.286;10.434;2023-06-26T01:14:59;7.43;;;5.75;;
73557;SDS011;61829;53.286;10.434;2023-06-26T01:17:26;9.45;;;6.43;;
73557;SDS011;61829;53.286;10.434;2023-06-26T01:20:00;8.13;;;6.05;;
73557;SDS011;61829;53.286;10.434;2023-06-26T01:28:17;8.20;;;5.80;;
73557;SDS011;61829;53.286;10.434;2023-06-26T01:30:45;7.68;;;6.03;;
73557;SDS011;61829;53.286;10.434;2023-06-26T01:33:13;7.25;;;5.90;;
73557;SDS011;61829;53.286;10.434;2023-06-26T01:35:40;8.60;;;6.65;;
73557;SDS011;61829;53.286;10.434;2023-06-26T01:40:43;8.15;;;5.85;;
73557;SDS011;61829;53.286;10.434;2023-06-26T01:46:10;8.35;;;5.97;;
73557;SDS011;61829;53.286;10.434;2023-06-26T01:51:46;7.28;;;5.85;;
73557;SDS011;61829;53.286;10.434;2023-06-26T01:54:20;7.13;;;5.32;;
73557;SDS011;61829;53.286;10.434;2023-06-26T01:56:49;7.30;;;5.40;;
73557;SDS011;61829;53.286;10.434;2023-06-26T01:59:19;8.60;;;6.03;;
73557;SDS011;61829;53.286;10.434;2023-06-26T02:01:47;8.02;;;5.53;;
73557;SDS011;61829;53.286;10.434;2023-06-26T02:04:13;8.18;;;6.20;;
73557;SDS011;61829;53.286;10.434;2023-06-26T02:06:39;7.30;;;6.10;;
73557;SDS011;61829;53.286;10.434;2023-06-26T02:09:05;7.45;;;5.90;;
73557;SDS011;61829;53.286;10.434;2023-06-26T02:11:31;8.13;;;5.93;;
73557;SDS011;61829;53.286;10.434;2023-06-26T02:13:57;8.07;;;5.70;;
73557;SDS011;61829;53.286;10.434;2023-06-26T02:16:23;10.48;;;6.05;;
73557;SDS011;61829;53.286;10.434;2023-06-26T02:18:48;6.80;;;5.35;;
73557;SDS011;61829;53.286;10.434;2023-06-26T02:21:14;8.77;;;5.78;;
73557;SDS011;61829;53.286;10.434;2023-06-26T02:23:40;8.75;;;5.82;;
73557;SDS011;61829;53.286;10.434;2023-06-26T02:26:06;7.60;;;5.47;;
73557;SDS011;61829;53.286;10.434;2023-06-26T02:28:32;7.95;;;5.57;;
73557;SDS011;61829;53.286;10.434;2023-06-26T02:30:59;7.55;;;5.95;;
73557;SDS011;61829;53.286;10.434;2023-06-26T02:33:26;7.03;;;5.65;;
73557;SDS011;61829;53.286;10.434;2023-06-26T02:35:52;7.80;;;5.85;;
73557;SDS011;61829;53.286;10.434;2023-06-26T02:38:18;8.00;;;5.70;;
73557;SDS011;61829;53.286;10.434;2023-06-26T02:40:44;8.27;;;5.88;;
73557;SDS011;61829;53.286;10.434;2023-06-26T02:43:10;7.25;;;5.40;;
73557;SDS011;61829;53.286;10.434;2023-06-26T02:45:36;8.00;;;6.00;;
73557;SDS011;61829;53.286;10.434;2023-06-26T02:48:01;7.93;;;5.70;;
73557;SDS011;61829;53.286;10.434;2023-06-26T02:50:27;10.57;;;6.15;;
73557;SDS011;61829;53.286;10.434;2023-06-26T02:52:53;6.78;;;5.38;;
73557;SDS011;61829;53.286;10.434;2023-06-26T02:55:19;11.10;;;5.40;;
73557;SDS011;61829;53.286;10.434;2023-06-26T03:00:12;7.95;;;5.95;;
73557;SDS011;61829;53.286;10.434;2023-06-26T03:02:38;9.23;;;5.93;;
73557;SDS011;61829;53.286;10.434;2023-06-26T03:05:07;11.93;;;5.93;;
73557;SDS011;61829;53.286;10.434;2023-06-26T03:07:33;7.68;;;5.65;;
73557;SDS011;61829;53.286;10.434;2023-06-26T03:09:59;9.23;;;6.95;;
73557;SDS011;61829;53.286;10.434;2023-06-26T03:12:25;9.95;;;5.68;;
73557;SDS011;61829;53.286;10.434;2023-06-26T03:14:52;7.57;;;6.05;;
73557;SDS011;61829;53.286;10.434;2023-06-26T03:17:33;8.82;;;6.10;;
73557;SDS011;61829;53.286;10.434;2023-06-26T03:19:59;10.85;;;5.95;;
73557;SDS011;61829;53.286;10.434;2023-06-26T03:22:25;10.07;;;5.82;;
73557;SDS011;61829;53.286;10.434;2023-06-26T03:24:51;8.52;;;6.00;;
73557;SDS011;61829;53.286;10.434;2023-06-26T03:27:17;7.40;;;5.40;;
73557;SDS011;61829;53.286;10.434;2023-06-26T03:29:42;8.60;;;6.85;;
73557;SDS011;61829;53.286;10.434;2023-06-26T03:32:08;8.98;;;6.40;;
73557;SDS011;61829;53.286;10.434;2023-06-26T03:34:34;9.95;;;6.45;;
73557;SDS011;61829;53.286;10.434;2023-06-26T03:37:00;9.90;;;6.65;;
73557;SDS011;61829;53.286;10.434;2023-06-26T03:39:27;8.18;;;6.00;;
73557;SDS011;61829;53.286;10.434;2023-06-26T03:41:53;7.82;;;5.97;;
73557;SDS011;61829;53.286;10.434;2023-06-26T03:44:22;8.10;;;6.55;;
73557;SDS011;61829;53.286;10.434;2023-06-26T03:46:48;10.93;;;6.20;;
73557;SDS011;61829;53.286;10.434;2023-06-26T03:49:13;8.07;;;5.88;;
73557;SDS011;61829;53.286;10.434;2023-06-26T03:51:39;9.07;;;6.53;;
73557;SDS011;61829;53.286;10.434;2023-06-26T03:54:05;10.40;;;5.82;;
73557;SDS011;61829;53.286;10.434;2023-06-26T03:56:31;8.07;;;6.18;;
73557;SDS011;61829;53.286;10.434;2023-06-26T03:58:57;10.23;;;6.38;;
73557;SDS011;61829;53.286;10.434;2023-06-26T04:01:23;9.25;;;6.10;;
73557;SDS011;61829;53.286;10.434;2023-06-26T04:03:49;7.63;;;5.97;;
73557;SDS011;61829;53.286;10.434;2023-06-26T04:06:15;7.72;;;5.63;;
73557;SDS011;61829;53.286;10.434;2023-06-26T04:08:41;8.23;;;6.00;;
73557;SDS011;61829;53.286;10.434;2023-06-26T04:11:06;8.35;;;5.82;;
73557;SDS011;61829;53.286;10.434;2023-06-26T04:13:32;7.60;;;5.97;;
73557;SDS011;61829;53.286;10.434;2023-06-26T04:15:58;8.25;;;5.88;;
73557;SDS011;61829;53.286;10.434;2023-06-26T04:18:24;7.22;;;5.53;;
73557;SDS011;61829;53.286;10.434;2023-06-26T04:23:37;8.05;;;5.45;;
73557;SDS011;61829;53.286;10.434;2023-06-26T04:26:06;8.07;;;5.40;;
73557;SDS011;61829;53.286;10.434;2023-06-26T04:28:32;8.60;;;6.38;;
73557;SDS011;61829;53.286;10.434;2023-06-26T04:30:59;9.73;;;5.68;;
73557;SDS011;61829;53.286;10.434;2023-06-26T04:33:26;7.75;;;5.53;;
73557;SDS011;61829;53.286;10.434;2023-06-26T04:35:52;9.30;;;6.13;;
73557;SDS011;61829;53.286;10.434;2023-06-26T04:38:19;7.10;;;5.38;;
73557;SDS011;61829;53.286;10.434;2023-06-26T04:40:46;8.90;;;5.90;;
73557;SDS011;61829;53.286;10.434;2023-06-26T04:43:11;8.25;;;5.50;;
73557;SDS011;61829;53.286;10.434;2023-06-26T04:45:37;7.45;;;5.53;;
73557;SDS011;61829;53.286;10.434;2023-06-26T04:48:03;8.82;;;6.05;;
73557;SDS011;61829;53.286;10.434;2023-06-26T04:50:31;7.35;;;5.65;;
73557;SDS011;61829;53.286;10.434;2023-06-26T04:52:59;7.95;;;6.05;;
73557;SDS011;61829;53.286;10.434;2023-06-26T04:55:25;8.45;;;5.47;;
73557;SDS011;61829;53.286;10.434;2023-06-26T04:57:51;7.32;;;5.30;;
73557;SDS011;61829;53.286;10.434;2023-06-26T05:00:17;6.40;;;5.28;;
73557;SDS011;61829;53.286;10.434;2023-06-26T05:02:43;6.45;;;5.18;;
73557;SDS011;61829;53.286;10.434;2023-06-26T05:05:09;8.13;;;5.25;;
73557;SDS011;61829;53.286;10.434;2023-06-26T05:07:41;6.55;;;5.03;;
73557;SDS011;61829;53.286;10.434;2023-06-26T05:10:07;7.65;;;5.40;;
73557;SDS011;61829;53.286;10.434;2023-06-26T05:12:34;10.65;;;5.55;;
73557;SDS011;61829;53.286;10.434;2023-06-26T05:15:00;6.22;;;4.88;;
73557;SDS011;61829;53.286;10.434;2023-06-26T05:17:26;6.82;;;5.35;;
73557;SDS011;61829;53.286;10.434;2023-06-26T05:19:51;7.45;;;5.15;;
73557;SDS011;61829;53.286;10.434;2023-06-26T05:22:17;8.98;;;4.75;;
73557;SDS011;61829;53.286;10.434;2023-06-26T05:24:45;9.70;;;5.15;;
73557;SDS011;61829;53.286;10.434;2023-06-26T05:27:12;7.38;;;4.78;;
73557;SDS011;61829;53.286;10.434;2023-06-26T05:29:46;6.13;;;4.88;;
73557;SDS011;61829;53.286;10.434;2023-06-26T05:32:12;10.02;;;5.20;;
73557;SDS011;61829;53.286;10.434;2023-06-26T05:34:48;6.85;;;4.80;;
73557;SDS011;61829;53.286;10.434;2023-06-26T05:37:17;6.88;;;4.90;;
73557;SDS011;61829;53.286;10.434;2023-06-26T05:39:46;6.90;;;4.57;;
73557;SDS011;61829;53.286;10.434;2023-06-26T05:42:12;8.02;;;4.47;;
73557;SDS011;61829;53.286;10.434;2023-06-26T05:44:38;6.30;;;4.68;;
73557;SDS011;61829;53.286;10.434;2023-06-26T05:47:04;7.68;;;4.68;;
73557;SDS011;61829;53.286;10.434;2023-06-26T05:49:30;6.55;;;4.60;;
73557;SDS011;61829;53.286;10.434;2023-06-26T05:51:56;6.13;;;4.88;;
73557;SDS011;61829;53.286;10.434;2023-06-26T05:54:23;6.43;;;4.90;;
73557;SDS011;61829;53.286;10.434;2023-06-26T05:56:51;7.53;;;4.60;;
73557;SDS011;61829;53.286;10.434;2023-06-26T05:59:22;5.38;;;4.32;;
73557;SDS011;61829;53.286;10.434;2023-06-26T06:01:48;7.28;;;4.78;;
73557;SDS011;61829;53.286;10.434;2023-06-26T06:04:14;5.80;;;4.32;;
73557;SDS011;61829;53.286;10.434;2023-06-26T06:06:40;6.25;;;4.78;;
73557;SDS011;61829;53.286;10.434;2023-06-26T06:09:06;7.28;;;4.50;;
73557;SDS011;61829;53.286;10.434;2023-06-26T06:11:32;6.25;;;4.22;;
73557;SDS011;61829;53.286;10.434;2023-06-26T06:13:57;9.13;;;4.95;;
73557;SDS011;61829;53.286;10.434;2023-06-26T06:16:25;9.57;;;5.00;;
73557;SDS011;61829;53.286;10.434;2023-06-26T06:18:54;8.05;;;4.95;;
73557;SDS011;61829;53.286;10.434;2023-06-26T06:21:23;5.32;;;4.47;;
73557;SDS011;61829;53.286;10.434;2023-06-26T06:23:49;5.70;;;4.47;;
73557;SDS011;61829;53.286;10.434;2023-06-26T06:26:15;5.40;;;4.38;;
73557;SDS011;61829;53.286;10.434;2023-06-26T06:28:41;6.88;;;4.60;;
73557;SDS011;61829;53.286;10.434;2023-06-26T06:31:07;6.13;;;4.70;;
73557;SDS011;61829;53.286;10.434;2023-06-26T06:33:33;7.00;;;5.07;;
73557;SDS011;61829;53.286;10.434;2023-06-26T06:38:26;7.03;;;4.63;;
73557;SDS011;61829;53.286;10.434;2023-06-26T06:40:53;8.35;;;4.20;;
73557;SDS011;61829;53.286;10.434;2023-06-26T06:43:19;7.15;;;4.50;;
73557;SDS011;61829;53.286;10.434;2023-06-26T06:45:45;6.30;;;4.80;;
73557;SDS011;61829;53.286;10.434;2023-06-26T06:48:11;9.13;;;4.97;;
73557;SDS011;61829;53.286;10.434;2023-06-26T06:50:38;6.85;;;4.70;;
73557;SDS011;61829;53.286;10.434;2023-06-26T06:53:04;11.45;;;4.88;;
73557;SDS011;61829;53.286;10.434;2023-06-26T06:55:30;6.03;;;4.55;;
73557;SDS011;61829;53.286;10.434;2023-06-26T06:57:56;8.45;;;4.70;;
73557;SDS011;61829;53.286;10.434;2023-06-26T07:00:23;6.05;;;4.97;;
73557;SDS011;61829;53.286;10.434;2023-06-26T07:02:49;7.03;;;5.00;;
73557;SDS011;61829;53.286;10.434;2023-06-26T07:05:16;6.25;;;4.55;;
73557;SDS011;61829;53.286;10.434;2023-06-26T07:07:42;6.35;;;4.82;;
73557;SDS011;61829;53.286;10.434;2023-06-26T07:10:10;5.72;;;4.43;;
73557;SDS011;61829;53.286;10.434;2023-06-26T07:12:37;8.30;;;4.80;;
73557;SDS011;61829;53.286;10.434;2023-06-26T07:15:05;6.38;;;4.80;;
73557;SDS011;61829;53.286;10.434;2023-06-26T07:17:33;6.07;;;4.40;;
73557;SDS011;61829;53.286;10.434;2023-06-26T07:20:01;5.90;;;4.28;;
73557;SDS011;61829;53.286;10.434;2023-06-26T07:22:32;6.97;;;5.57;;
73557;SDS011;61829;53.286;10.434;2023-06-26T07:24:59;6.22;;;4.75;;
73557;SDS011;61829;53.286;10.434;2023-06-26T07:27:25;9.10;;;4.78;;
73557;SDS011;61829;53.286;10.434;2023-06-26T07:29:52;7.70;;;4.65;;
73557;SDS011;61829;53.286;10.434;2023-06-26T07:34:46;6.22;;;4.57;;
73557;SDS011;61829;53.286;10.434;2023-06-26T07:37:12;7.32;;;4.70;;
73557;SDS011;61829;53.286;10.434;2023-06-26T07:39:39;6.68;;;4.65;;
73557;SDS011;61829;53.286;10.434;2023-06-26T07:42:05;6.18;;;4.72;;
73557;SDS011;61829;53.286;10.434;2023-06-26T07:44:31;8.73;;;5.43;;
73557;SDS011;61829;53.286;10.434;2023-06-26T07:46:57;6.25;;;4.85;;
73557;SDS011;61829;53.286;10.434;2023-06-26T07:49:25;7.97;;;5.10;;
73557;SDS011;61829;53.286;10.434;2023-06-26T07:51:51;8.13;;;4.65;;
73557;SDS011;61829;53.286;10.434;2023-06-26T07:54:18;6.30;;;5.05;;
73557;SDS011;61829;53.286;10.434;2023-06-26T07:56:57;7.38;;;4.95;;
73557;SDS011;61829;53.286;10.434;2023-06-26T07:59:26;7.03;;;4.70;;
73557;SDS011;61829;53.286;10.434;2023-06-26T08:01:53;7.38;;;4.97;;
73557;SDS011;61829;53.286;10.434;2023-06-26T08:04:21;6.22;;;5.18;;
73557;SDS011;61829;53.286;10.434;2023-06-26T08:06:53;7.00;;;4.90;;
73557;SDS011;61829;53.286;10.434;2023-06-26T08:09:22;6.93;;;4.78;;
73557;SDS011;61829;53.286;10.434;2023-06-26T08:11:50;5.60;;;4.68;;
73557;SDS011;61829;53.286;10.434;2023-06-26T08:29:06;6.53;;;5.20;;
73557;SDS011;61829;53.286;10.434;2023-06-26T08:31:35;5.95;;;4.85;;
73557;SDS011;61829;53.286;10.434;2023-06-26T08:34:04;7.13;;;4.88;;
73557;SDS011;61829;53.286;10.434;2023-06-26T08:36:31;8.18;;;4.90;;
73557;SDS011;61829;53.286;10.434;2023-06-26T08:38:58;6.40;;;4.93;;
73557;SDS011;61829;53.286;10.434;2023-06-26T08:41:24;5.97;;;4.95;;
73557;SDS011;61829;53.286;10.434;2023-06-26T08:43:50;7.50;;;5.05;;
73557;SDS011;61829;53.286;10.434;2023-06-26T08:46:19;6.40;;;5.18;;
73557;SDS011;61829;53.286;10.434;2023-06-26T08:48:48;6.75;;;5.03;;
73557;SDS011;61829;53.286;10.434;2023-06-26T08:51:17;7.30;;;5.13;;
73557;SDS011;61829;53.286;10.434;2023-06-26T08:58:40;6.32;;;4.80;;
73557;SDS011;61829;53.286;10.434;2023-06-26T09:01:06;8.48;;;5.72;;
73557;SDS011;61829;53.286;10.434;2023-06-26T09:03:33;7.20;;;5.45;;
73557;SDS011;61829;53.286;10.434;2023-06-26T09:06:00;6.90;;;5.13;;
73557;SDS011;61829;53.286;10.434;2023-06-26T09:08:27;10.35;;;5.72;;
73557;SDS011;61829;53.286;10.434;2023-06-26T09:10:54;7.63;;;5.60;;
73557;SDS011;61829;53.286;10.434;2023-06-26T09:13:19;8.50;;;5.55;;
73557;SDS011;61829;53.286;10.434;2023-06-26T09:15:46;6.55;;;5.20;;
73557;SDS011;61829;53.286;10.434;2023-06-26T09:18:12;6.57;;;5.30;;
73557;SDS011;61829;53.286;10.434;2023-06-26T09:20:38;7.15;;;5.90;;
73557;SDS011;61829;53.286;10.434;2023-06-26T09:23:04;7.68;;;5.78;;
73557;SDS011;61829;53.286;10.434;2023-06-26T09:25:31;8.27;;;5.68;;
73557;SDS011;61829;53.286;10.434;2023-06-26T09:27:56;6.85;;;5.53;;
73557;SDS011;61829;53.286;10.434;2023-06-26T09:30:23;7.43;;;5.32;;
73557;SDS011;61829;53.286;10.434;2023-06-26T09:32:50;6.57;;;5.18;;
73557;SDS011;61829;53.286;10.434;2023-06-26T09:35:16;6.53;;;5.40;;
73557;SDS011;61829;53.286;10.434;2023-06-26T09:37:45;8.50;;;5.80;;
73557;SDS011;61829;53.286;10.434;2023-06-26T09:40:13;7.40;;;5.28;;
73557;SDS011;61829;53.286;10.434;2023-06-26T09:42:41;6.88;;;4.70;;
73557;SDS011;61829;53.286;10.434;2023-06-26T09:45:12;6.32;;;4.82;;
73557;SDS011;61829;53.286;10.434;2023-06-26T09:47:44;7.00;;;5.10;;
73557;SDS011;61829;53.286;10.434;2023-06-26T09:50:20;6.88;;;5.32;;
73557;SDS011;61829;53.286;10.434;2023-06-26T09:52:47;6.38;;;5.50;;
73557;SDS011;61829;53.286;10.434;2023-06-26T09:55:13;8.15;;;5.57;;
73557;SDS011;61829;53.286;10.434;2023-06-26T09:57:39;8.25;;;5.07;;
73557;SDS011;61829;53.286;10.434;2023-06-26T10:00:06;8.55;;;5.70;;
73557;SDS011;61829;53.286;10.434;2023-06-26T10:02:34;7.20;;;5.88;;
73557;SDS011;61829;53.286;10.434;2023-06-26T10:05:01;6.43;;;5.75;;
73557;SDS011;61829;53.286;10.434;2023-06-26T10:07:26;7.40;;;6.50;;
73557;SDS011;61829;53.286;10.434;2023-06-26T10:09:53;7.45;;;6.35;;
73557;SDS011;61829;53.286;10.434;2023-06-26T10:12:28;7.70;;;6.05;;
73557;SDS011;61829;53.286;10.434;2023-06-26T10:14:56;8.02;;;6.22;;
73557;SDS011;61829;53.286;10.434;2023-06-26T10:17:24;9.18;;;6.18;;
73557;SDS011;61829;53.286;10.434;2023-06-26T10:19:54;8.15;;;6.18;;
73557;SDS011;61829;53.286;10.434;2023-06-26T10:22:24;11.25;;;6.38;;
73557;SDS011;61829;53.286;10.434;2023-06-26T10:24:55;8.02;;;6.85;;
73557;SDS011;61829;53.286;10.434;2023-06-26T10:27:25;8.15;;;6.15;;
73557;SDS011;61829;53.286;10.434;2023-06-26T10:30:00;10.20;;;7.80;;
73557;SDS011;61829;53.286;10.434;2023-06-26T10:32:28;10.32;;;7.82;;
73557;SDS011;61829;53.286;10.434;2023-06-26T10:34:55;10.07;;;7.15;;
73557;SDS011;61829;53.286;10.434;2023-06-26T10:37:40;10.30;;;7.15;;
73557;SDS011;61829;53.286;10.434;2023-06-26T10:40:14;10.50;;;7.13;;
73557;SDS011;61829;53.286;10.434;2023-06-26T10:42:46;11.38;;;7.40;;
73557;SDS011;61829;53.286;10.434;2023-06-26T10:47:41;15.35;;;6.30;;
73557;SDS011;61829;53.286;10.434;2023-06-26T10:50:18;5.45;;;3.70;;
73557;SDS011;61829;53.286;10.434;2023-06-26T10:53:06;9.63;;;3.47;;
73557;SDS011;61829;53.286;10.434;2023-06-26T10:55:37;13.95;;;4.25;;
73557;SDS011;61829;53.286;10.434;2023-06-26T10:58:26;7.40;;;3.35;;
73557;SDS011;61829;53.286;10.434;2023-06-26T11:03:45;7.43;;;3.38;;
73557;SDS011;61829;53.286;10.434;2023-06-26T11:06:17;7.80;;;4.13;;
73557;SDS011;61829;53.286;10.434;2023-06-26T11:11:20;7.03;;;4.35;;
73557;SDS011;61829;53.286;10.434;2023-06-26T11:13:48;8.88;;;4.00;;
73557;SDS011;61829;53.286;10.434;2023-06-26T11:19:04;7.15;;;4.20;;
73557;SDS011;61829;53.286;10.434;2023-06-26T11:21:31;6.18;;;3.60;;
73557;SDS011;61829;53.286;10.434;2023-06-26T11:23:58;6.63;;;4.30;;
73557;SDS011;61829;53.286;10.434;2023-06-26T11:26:27;7.53;;;3.95;;
73557;SDS011;61829;53.286;10.434;2023-06-26T11:28:54;6.53;;;4.03;;
73557;SDS011;61829;53.286;10.434;2023-06-26T11:31:27;7.05;;;5.03;;
73557;SDS011;61829;53.286;10.434;2023-06-26T11:33:59;9.50;;;4.75;;
73557;SDS011;61829;53.286;10.434;2023-06-26T11:36:27;8.95;;;5.55;;
73557;SDS011;61829;53.286;10.434;2023-06-26T11:38:56;8.02;;;5.60;;
73557;SDS011;61829;53.286;10.434;2023-06-26T11:41:25;9.15;;;6.00;;
73557;SDS011;61829;53.286;10.434;2023-06-26T11:43:53;10.05;;;6.57;;
73557;SDS011;61829;53.286;10.434;2023-06-26T11:46:20;9.82;;;6.80;;
73557;SDS011;61829;53.286;10.434;2023-06-26T11:48:47;9.07;;;6.65;;
73557;SDS011;61829;53.286;10.434;2023-06-26T11:51:15;8.82;;;6.45;;
73557;SDS011;61829;53.286;10.434;2023-06-26T11:53:45;10.45;;;6.20;;
73557;SDS011;61829;53.286;10.434;2023-06-26T11:56:12;10.50;;;6.47;;
73557;SDS011;61829;53.286;10.434;2023-06-26T12:04:06;10.63;;;6.65;;
73557;SDS011;61829;53.286;10.434;2023-06-26T12:06:33;9.80;;;6.72;;
73557;SDS011;61829;53.286;10.434;2023-06-26T12:09:02;8.43;;;6.43;;
73557;SDS011;61829;53.286;10.434;2023-06-26T12:11:31;8.45;;;6.65;;
73557;SDS011;61829;53.286;10.434;2023-06-26T12:13:59;10.32;;;6.50;;
73557;SDS011;61829;53.286;10.434;2023-06-26T12:16:30;10.73;;;6.18;;
73557;SDS011;61829;53.286;10.434;2023-06-26T12:18:59;10.73;;;5.50;;
73557;SDS011;61829;53.286;10.434;2023-06-26T12:24:06;8.73;;;3.95;;
73557;SDS011;61829;53.286;10.434;2023-06-26T12:33:56;9.32;;;3.83;;
73557;SDS011;61829;53.286;10.434;2023-06-26T12:36:23;7.30;;;3.50;;
73557;SDS011;61829;53.286;10.434;2023-06-26T12:38:51;5.05;;;3.05;;
73557;SDS011;61829;53.286;10.434;2023-06-26T12:41:19;6.50;;;3.03;;
73557;SDS011;61829;53.286;10.434;2023-06-26T12:43:45;5.85;;;2.45;;
73557;SDS011;61829;53.286;10.434;2023-06-26T12:46:12;8.40;;;2.63;;
73557;SDS011;61829;53.286;10.434;2023-06-26T12:48:38;5.85;;;2.47;;
73557;SDS011;61829;53.286;10.434;2023-06-26T12:51:15;8.02;;;3.10;;
73557;SDS011;61829;53.286;10.434;2023-06-26T12:53:43;5.28;;;1.80;;
73557;SDS011;61829;53.286;10.434;2023-06-26T12:56:10;3.40;;;1.77;;
73557;SDS011;61829;53.286;10.434;2023-06-26T12:58:36;6.55;;;2.35;;
73557;SDS011;61829;53.286;10.434;2023-06-26T13:01:06;6.50;;;1.67;;
73557;SDS011;61829;53.286;10.434;2023-06-26T13:03:39;5.90;;;2.10;;
73557;SDS011;61829;53.286;10.434;2023-06-26T13:06:05;8.55;;;2.13;;
73557;SDS011;61829;53.286;10.434;2023-06-26T13:08:33;7.18;;;2.25;;
73557;SDS011;61829;53.286;10.434;2023-06-26T13:11:00;9.20;;;2.00;;
73557;SDS011;61829;53.286;10.434;2023-06-26T13:13:26;3.63;;;1.55;;
73557;SDS011;61829;53.286;10.434;2023-06-26T13:15:52;3.88;;;1.65;;
73557;SDS011;61829;53.286;10.434;2023-06-26T13:18:18;7.30;;;2.20;;
73557;SDS011;61829;53.286;10.434;2023-06-26T13:20:44;6.97;;;2.08;;
73557;SDS011;61829;53.286;10.434;2023-06-26T13:23:10;4.75;;;1.77;;
73557;SDS011;61829;53.286;10.434;2023-06-26T13:25:36;5.32;;;1.60;;
73557;SDS011;61829;53.286;10.434;2023-06-26T13:28:02;4.88;;;1.92;;
73557;SDS011;61829;53.286;10.434;2023-06-26T13:30:28;5.40;;;1.80;;
73557;SDS011;61829;53.286;10.434;2023-06-26T13:32:55;6.57;;;1.95;;
73557;SDS011;61829;53.286;10.434;2023-06-26T13:35:21;5.68;;;2.03;;
73557;SDS011;61829;53.286;10.434;2023-06-26T13:37:46;5.50;;;1.75;;
73557;SDS011;61829;53.286;10.434;2023-06-26T13:40:13;6.00;;;2.10;;
73557;SDS011;61829;53.286;10.434;2023-06-26T13:42:39;7.55;;;1.92;;
73557;SDS011;61829;53.286;10.434;2023-06-26T13:45:06;7.10;;;1.88;;
73557;SDS011;61829;53.286;10.434;2023-06-26T13:50:00;5.82;;;1.92;;
73557;SDS011;61829;53.286;10.434;2023-06-26T13:52:26;6.03;;;1.80;;
73557;SDS011;61829;53.286;10.434;2023-06-26T13:54:52;4.22;;;1.80;;
73557;SDS011;61829;53.286;10.434;2023-06-26T13:57:18;3.85;;;1.65;;
73557;SDS011;61829;53.286;10.434;2023-06-26T13:59:47;6.18;;;2.10;;
73557;SDS011;61829;53.286;10.434;2023-06-26T14:02:13;5.97;;;1.80;;
73557;SDS011;61829;53.286;10.434;2023-06-26T14:04:39;5.18;;;1.67;;
73557;SDS011;61829;53.286;10.434;2023-06-26T14:07:05;8.02;;;1.92;;
73557;SDS011;61829;53.286;10.434;2023-06-26T14:09:32;6.13;;;1.80;;
73557;SDS011;61829;53.286;10.434;2023-06-26T14:11:58;5.70;;;2.15;;
73557;SDS011;61829;53.286;10.434;2023-06-26T14:14:24;6.43;;;1.70;;
73557;SDS011;61829;53.286;10.434;2023-06-26T14:16:50;5.35;;;1.70;;
73557;SDS011;61829;53.286;10.434;2023-06-26T14:19:16;5.45;;;1.90;;
73557;SDS011;61829;53.286;10.434;2023-06-26T14:21:45;4.65;;;1.80;;
73557;SDS011;61829;53.286;10.434;2023-06-26T14:24:11;5.90;;;1.70;;
73557;SDS011;61829;53.286;10.434;2023-06-26T14:26:37;4.28;;;1.83;;
73557;SDS011;61829;53.286;10.434;2023-06-26T14:29:04;2.85;;;1.40;;
73557;SDS011;61829;53.286;10.434;2023-06-26T14:31:30;4.22;;;1.73;;
73557;SDS011;61829;53.286;10.434;2023-06-26T14:33:56;4.90;;;2.17;;
73557;SDS011;61829;53.286;10.434;2023-06-26T14:36:24;5.82;;;1.80;;
73557;SDS011;61829;53.286;10.434;2023-06-26T14:38:52;5.45;;;1.83;;
73557;SDS011;61829;53.286;10.434;2023-06-26T14:41:18;2.38;;;1.50;;
73557;SDS011;61829;53.286;10.434;2023-06-26T14:43:44;5.82;;;1.75;;
73557;SDS011;61829;53.286;10.434;2023-06-26T14:46:11;5.65;;;1.70;;
73557;SDS011;61829;53.286;10.434;2023-06-26T14:48:37;7.47;;;2.03;;
73557;SDS011;61829;53.286;10.434;2023-06-26T14:51:02;3.92;;;1.77;;
73557;SDS011;61829;53.286;10.434;2023-06-26T14:53:28;5.40;;;1.70;;
73557;SDS011;61829;53.286;10.434;2023-06-26T14:55:54;4.03;;;1.50;;
73557;SDS011;61829;53.286;10.434;2023-06-26T14:58:21;5.53;;;1.60;;
73557;SDS011;61829;53.286;10.434;2023-06-26T15:00:47;8.15;;;2.13;;
73557;SDS011;61829;53.286;10.434;2023-06-26T15:03:14;4.85;;;1.75;;
73557;SDS011;61829;53.286;10.434;2023-06-26T15:05:39;4.28;;;1.70;;
73557;SDS011;61829;53.286;10.434;2023-06-26T15:08:05;5.90;;;1.70;;
73557;SDS011;61829;53.286;10.434;2023-06-26T15:10:31;8.65;;;1.60;;
73557;SDS011;61829;53.286;10.434;2023-06-26T15:12:57;6.38;;;1.67;;
73557;SDS011;61829;53.286;10.434;2023-06-26T15:15:24;4.80;;;1.48;;
73557;SDS011;61829;53.286;10.434;2023-06-26T15:17:50;3.05;;;1.88;;
73557;SDS011;61829;53.286;10.434;2023-06-26T15:20:16;4.20;;;1.63;;
73557;SDS011;61829;53.286;10.434;2023-06-26T15:22:43;2.55;;;1.48;;
73557;SDS011;61829;53.286;10.434;2023-06-26T15:25:08;4.78;;;1.60;;
73557;SDS011;61829;53.286;10.434;2023-06-26T15:27:35;7.60;;;1.80;;
73557;SDS011;61829;53.286;10.434;2023-06-26T15:30:00;5.18;;;1.48;;
73557;SDS011;61829;53.286;10.434;2023-06-26T15:32:26;4.93;;;1.85;;
73557;SDS011;61829;53.286;10.434;2023-06-26T15:34:54;5.40;;;1.50;;
73557;SDS011;61829;53.286;10.434;2023-06-26T15:37:20;3.75;;;1.88;;
73557;SDS011;61829;53.286;10.434;2023-06-26T15:39:46;4.05;;;1.58;;
73557;SDS011;61829;53.286;10.434;2023-06-26T15:42:12;3.20;;;1.60;;
73557;SDS011;61829;53.286;10.434;2023-06-26T15:44:37;4.88;;;1.70;;
73557;SDS011;61829;53.286;10.434;2023-06-26T15:47:04;3.88;;;1.92;;
73557;SDS011;61829;53.286;10.434;2023-06-26T15:49:30;3.78;;;1.50;;